createdAt,value
2023-01-10T00:01:22.615Z,120.63
2023-01-10T00:11:45.056Z,119.90
2023-01-10T00:21:48.549Z,119.20
2023-01-10T00:31:53.390Z,116.70
2023-01-10T00:42:14.362Z,116.60
2023-01-10T00:52:19.217Z,113.10
2023-01-10T01:02:22.812Z,111.33
2023-01-10T01:12:27.924Z,104.30
2023-01-10T01:22:31.493Z,104.43
2023-01-10T01:32:36.424Z,101.33
2023-01-10T01:42:40.060Z,103.20
2023-01-10T01:52:45.585Z,100.10
2023-01-10T02:03:02.618Z,101.20
2023-01-10T02:13:11.020Z,102.43
2023-01-10T02:23:51.652Z,102.60
2023-01-10T02:34:05.557Z,100.70
2023-01-10T02:44:13.541Z,105.77
2023-01-10T02:54:22.966Z,102.93
2023-01-10T03:04:37.609Z,100.40
2023-01-10T03:14:44.299Z,99.53
2023-01-10T03:24:51.004Z,95.87
2023-01-10T03:34:56.517Z,96.93
2023-01-10T03:45:06.790Z,100.93
2023-01-10T03:55:16.646Z,100.13
2023-01-10T04:05:21.801Z,97.23
2023-01-10T04:15:26.648Z,88.07
2023-01-10T04:25:30.122Z,88.67
2023-01-10T04:35:34.952Z,86.47
2023-01-10T04:45:38.944Z,84.73
2023-01-10T04:55:43.833Z,87.97
2023-01-10T05:05:47.338Z,87.37
2023-01-10T05:15:55.080Z,85.40
2023-01-10T05:25:58.701Z,85.77
2023-01-10T05:36:04.983Z,83.47
2023-01-10T05:46:08.499Z,82.37
2023-01-10T05:56:13.492Z,83.13
2023-01-10T06:06:16.964Z,84.07
2023-01-10T06:16:22.224Z,82.03
2023-01-10T06:26:25.905Z,85.70
2023-01-10T06:36:30.732Z,82.40
2023-01-10T06:46:34.191Z,87.23
2023-01-10T06:56:39.049Z,83.50
2023-01-10T07:06:43.121Z,85.77
2023-01-10T07:16:48.084Z,104.23
2023-01-10T07:26:51.508Z,87.30
2023-01-10T07:36:56.438Z,85.13
2023-01-10T07:46:59.996Z,88.37
2023-01-10T07:57:05.011Z,85.37
2023-01-10T08:07:08.449Z,90.77
2023-01-10T08:17:13.269Z,90.10
2023-01-10T08:27:16.762Z,82.90
2023-01-10T08:37:21.662Z,84.03
2023-01-10T08:47:25.358Z,102.03
2023-01-10T08:57:32.511Z,100.20
2023-01-10T09:07:36.139Z,96.87
2023-01-10T09:17:41.382Z,103.87
2023-01-10T09:27:44.908Z,97.57
2023-01-10T09:37:50.026Z,86.80
2023-01-10T09:48:00.563Z,91.13
2023-01-10T09:58:11.389Z,90.63
2023-01-10T10:08:19.275Z,96.37
2023-01-10T10:18:40.218Z,99.93
2023-01-10T10:29:13.263Z,95.23
2023-01-10T10:39:22.523Z,103.57
2023-01-10T10:49:38.486Z,92.60
2023-01-10T10:59:48.584Z,88.07
2023-01-10T11:09:56.009Z,81.43
2023-01-10T11:20:06.307Z,114.13
2023-01-10T11:30:18.357Z,82.47
2023-01-10T11:40:26.860Z,81.10
2023-01-10T11:50:34.714Z,136.00
2023-01-10T12:00:44.878Z,83.97
2023-01-10T12:11:03.547Z,87.13
2023-01-10T12:21:11.441Z,88.13
2023-01-10T12:31:16.480Z,87.13
2023-01-10T12:41:52.516Z,84.47
2023-01-10T12:52:00.308Z,89.60
2023-01-10T13:02:11.374Z,91.50
2023-01-10T13:12:21.743Z,91.53
2023-01-10T13:22:26.741Z,91.57
2023-01-10T13:32:35.260Z,95.67
2023-01-10T13:42:57.652Z,106.53
2023-01-10T13:53:59.626Z,108.57
2023-01-10T14:04:05.308Z,128.10
2023-01-10T14:14:24.005Z,106.70
2023-01-10T14:24:33.658Z,95.97
2023-01-10T14:34:39.011Z,130.57
2023-01-10T14:44:50.074Z,98.33
2023-01-10T14:55:04.661Z,100.57
2023-01-10T15:05:18.435Z,102.27
2023-01-10T15:15:34.206Z,113.77
2023-01-10T15:25:40.765Z,101.80
2023-01-10T15:35:45.068Z,104.50
2023-01-10T15:45:51.579Z,107.83
2023-01-10T15:55:56.978Z,120.53
2023-01-10T16:06:02.636Z,116.60
2023-01-10T16:16:16.842Z,98.70
2023-01-10T16:26:21.813Z,99.43
2023-01-10T16:36:25.283Z,105.43
2023-01-10T16:46:30.309Z,130.13
2023-01-10T16:56:33.812Z,122.03
2023-01-10T17:06:40.250Z,127.90
2023-01-10T17:16:43.768Z,131.27
2023-01-10T17:26:48.759Z,118.67
2023-01-10T17:36:52.485Z,126.00
2023-01-10T17:46:57.406Z,120.50
2023-01-10T17:57:00.879Z,130.43
2023-01-10T18:07:07.369Z,130.20
2023-01-10T18:17:13.138Z,114.73
2023-01-10T18:27:18.474Z,115.20
2023-01-10T18:37:21.990Z,118.80
2023-01-10T18:47:26.934Z,122.03
2023-01-10T18:57:32.572Z,121.60
2023-01-10T19:07:37.529Z,119.07
2023-01-10T19:17:41.191Z,123.47
2023-01-10T19:27:46.121Z,134.40
2023-01-10T19:37:49.820Z,137.17
2023-01-10T19:47:54.713Z,134.27
2023-01-10T19:57:58.267Z,138.43
2023-01-10T20:08:04.963Z,131.30
2023-01-10T20:18:08.486Z,127.80
2023-01-10T20:28:13.350Z,127.23
2023-01-10T20:38:18.968Z,123.97
2023-01-10T20:48:25.391Z,121.70
2023-01-10T20:58:28.935Z,138.87
2023-01-10T21:08:34.003Z,135.33
2023-01-10T21:18:41.110Z,127.93
2023-01-10T21:28:47.646Z,133.10
2023-01-10T21:38:51.209Z,121.00
2023-01-10T21:48:58.928Z,119.23
2023-01-10T21:59:02.405Z,122.27
2023-01-10T22:09:07.319Z,116.30
2023-01-10T22:19:11.470Z,114.07
2023-01-10T22:29:16.826Z,118.53
2023-01-10T22:39:20.409Z,111.40
2023-01-10T22:49:25.319Z,110.37
2023-01-10T22:59:28.724Z,113.87
2023-01-10T23:09:33.566Z,109.63
2023-01-10T23:19:37.051Z,109.47
2023-01-10T23:29:41.933Z,109.40
2023-01-10T23:39:45.398Z,112.30
2023-01-10T23:49:50.354Z,112.07
2023-01-10T23:59:53.804Z,109.43
